Time;durP1;ratioP1;P1;durP2;ratioP2;P2;SDS_P1;SDS_P2;PMS_P1;PMS_P2;Temp;Humidity;BMP_temperature;BMP_pressure;BME280_temperature;BME280_humidity;BME280_pressure;Samples;Min_cycle;Max_cycle;Signal;HPM_P1;HPM_P2
2022/05/15 00:02:21;;;;;;;23.67;6.45;;;;;;;;;;5012778;28;94790;-69
2022/05/15 00:04:47;;;;;;;25.02;6.22;;;;;;;;;;5016173;27;95419;-69
2022/05/15 00:07:14;;;;;;;34.60;7.65;;;;;;;;;;5023718;28;92481;-69
2022/05/15 00:09:40;;;;;;;26.63;6.93;;;;;;;;;;5020470;28;92499;-68
2022/05/15 00:12:06;;;;;;;27.65;6.70;;;;;;;;;;5030485;28;93253;-69
2022/05/15 00:14:33;;;;;;;31.10;7.15;;;;;;;;;;5035531;28;93341;-69
2022/05/15 00:16:59;;;;;;;34.22;6.22;;;;;;;;;;5019115;27;94077;-68
2022/05/15 00:19:26;;;;;;;27.83;7.47;;;;;;;;;;5014594;28;92600;-68
2022/05/15 00:21:52;;;;;;;33.42;6.35;;;;;;;;;;5015766;28;93000;-69
2022/05/15 00:24:20;;;;;;;29.88;6.72;;;;;;;;;;5014680;28;93026;-68
2022/05/15 00:26:46;;;;;;;27.58;6.70;;;;;;;;;;5014189;28;96026;-68
2022/05/15 00:29:12;;;;;;;31.85;6.50;;;;;;;;;;5022998;28;92823;-69
2022/05/15 00:31:38;;;;;;;26.83;6.55;;;;;;;;;;5022305;28;93167;-69
2022/05/15 00:34:05;;;;;;;31.90;7.15;;;;;;;;;;5033621;27;93272;-69
2022/05/15 00:36:31;;;;;;;38.47;7.00;;;;;;;;;;5020104;27;92478;-69
2022/05/15 00:38:58;;;;;;;40.10;7.50;;;;;;;;;;5017466;28;93520;-68
2022/05/15 00:41:25;;;;;;;40.75;7.63;;;;;;;;;;5023446;28;92389;-69
2022/05/15 00:43:55;;;;;;;33.83;7.20;;;;;;;;;;5030592;27;93073;-69
2022/05/15 00:46:23;;;;;;;39.13;7.13;;;;;;;;;;5037727;27;93924;-69
2022/05/15 00:48:50;;;;;;;53.83;7.50;;;;;;;;;;5025846;27;92468;-69
2022/05/15 00:51:35;;;;;;;44.97;7.68;;;;;;;;;;5015170;28;94896;-69
2022/05/15 00:54:10;;;;;;;39.50;7.80;;;;;;;;;;5025463;28;93251;-69
2022/05/15 00:56:38;;;;;;;39.35;7.07;;;;;;;;;;5027450;27;92643;-69
2022/05/15 00:59:08;;;;;;;33.92;6.65;;;;;;;;;;5032696;27;93226;-69
2022/05/15 01:01:34;;;;;;;34.13;7.60;;;;;;;;;;5016350;28;92559;-69
2022/05/15 01:04:01;;;;;;;37.17;7.53;;;;;;;;;;5027887;28;93196;-69
2022/05/15 01:06:29;;;;;;;35.92;7.63;;;;;;;;;;5034635;27;93511;-69
2022/05/15 01:08:55;;;;;;;39.63;6.95;;;;;;;;;;5020317;27;92131;-68
2022/05/15 01:11:22;;;;;;;36.88;7.35;;;;;;;;;;5037037;27;92327;-69
2022/05/15 01:13:49;;;;;;;32.47;6.68;;;;;;;;;;5024184;28;95204;-70
2022/05/15 01:16:18;;;;;;;36.13;7.28;;;;;;;;;;5021542;27;94913;-69
2022/05/15 01:18:47;;;;;;;31.33;6.75;;;;;;;;;;5024257;28;95929;-69
2022/05/15 01:21:33;;;;;;;28.83;6.28;;;;;;;;;;5027026;27;92534;-69
2022/05/15 01:24:01;;;;;;;31.58;6.53;;;;;;;;;;5026973;27;93628;-69
2022/05/15 01:26:27;;;;;;;32.88;7.82;;;;;;;;;;5026047;27;93298;-69
2022/05/15 01:28:54;;;;;;;24.83;6.25;;;;;;;;;;5015380;28;92940;-68
2022/05/15 01:31:20;;;;;;;31.92;6.40;;;;;;;;;;5015432;28;94431;-68
2022/05/15 01:33:48;;;;;;;28.27;6.68;;;;;;;;;;5016036;28;92702;-69
2022/05/15 01:36:15;;;;;;;30.15;6.65;;;;;;;;;;5020453;28;93825;-68
2022/05/15 01:38:42;;;;;;;28.02;6.68;;;;;;;;;;5015175;28;93145;-69
2022/05/15 01:41:10;;;;;;;26.85;6.18;;;;;;;;;;5016685;28;95821;-69
2022/05/15 01:43:37;;;;;;;27.13;6.07;;;;;;;;;;5016857;28;97868;-69
2022/05/15 01:46:03;;;;;;;23.80;6.25;;;;;;;;;;5025057;27;93486;-69
2022/05/15 01:48:30;;;;;;;25.45;6.35;;;;;;;;;;5032488;28;92545;-69
2022/05/15 01:50:56;;;;;;;23.95;6.00;;;;;;;;;;5017998;27;93455;-68
2022/05/15 01:53:22;;;;;;;25.90;5.80;;;;;;;;;;5020270;28;93453;-69
2022/05/15 01:55:50;;;;;;;20.55;5.47;;;;;;;;;;5018798;27;92692;-69
2022/05/15 01:58:16;;;;;;;20.40;5.20;;;;;;;;;;5036034;28;94771;-69
2022/05/15 02:00:42;;;;;;;20.30;6.20;;;;;;;;;;5027698;28;94718;-69
2022/05/15 02:03:09;;;;;;;26.23;6.05;;;;;;;;;;5039285;27;92408;-68
2022/05/15 02:05:35;;;;;;;19.40;5.57;;;;;;;;;;5034084;27;95965;-69
2022/05/15 02:08:02;;;;;;;19.20;6.38;;;;;;;;;;5022477;28;92557;-69
2022/05/15 02:10:28;;;;;;;17.92;5.68;;;;;;;;;;5017277;28;93015;-69
2022/05/15 02:12:55;;;;;;;26.38;6.57;;;;;;;;;;5016921;28;93606;-69
2022/05/15 02:15:21;;;;;;;24.67;6.78;;;;;;;;;;5019383;27;92518;-69
2022/05/15 02:17:47;;;;;;;28.33;6.30;;;;;;;;;;5036276;27;94320;-69
2022/05/15 02:20:14;;;;;;;25.08;6.10;;;;;;;;;;5035478;27;92459;-69
2022/05/15 02:22:41;;;;;;;20.95;6.68;;;;;;;;;;5020574;27;92308;-70
2022/05/15 02:25:08;;;;;;;20.40;6.32;;;;;;;;;;5017963;28;93500;-68
2022/05/15 02:27:35;;;;;;;24.48;6.40;;;;;;;;;;5015075;28;92568;-69
2022/05/15 02:30:02;;;;;;;33.55;6.75;;;;;;;;;;5013424;28;95754;-69
2022/05/15 02:32:28;;;;;;;27.15;6.10;;;;;;;;;;5030132;28;94421;-69
2022/05/15 02:34:55;;;;;;;24.15;6.53;;;;;;;;;;5015001;28;92475;-69
2022/05/15 02:37:21;;;;;;;25.13;6.88;;;;;;;;;;5023094;28;93284;-69
2022/05/15 02:39:47;;;;;;;22.90;5.50;;;;;;;;;;5030685;28;93612;-69
2022/05/15 02:42:13;;;;;;;27.15;6.10;;;;;;;;;;5013008;28;94054;-69
2022/05/15 02:44:40;;;;;;;22.35;7.05;;;;;;;;;;5010555;28;92797;-70
2022/05/15 02:47:06;;;;;;;31.77;6.45;;;;;;;;;;5014443;27;92866;-69
2022/05/15 02:52:17;;;;;;;20.15;6.10;;;;;;;;;;5009996;28;93461;-69
2022/05/15 02:54:43;;;;;;;20.55;6.68;;;;;;;;;;5005321;28;94998;-69
2022/05/15 02:57:10;;;;;;;21.75;5.63;;;;;;;;;;5009875;28;95602;-69
2022/05/15 02:59:37;;;;;;;20.23;5.65;;;;;;;;;;5013578;28;95417;-69
2022/05/15 03:02:03;;;;;;;23.30;5.78;;;;;;;;;;5009467;28;92732;-69
2022/05/15 03:04:31;;;;;;;15.80;4.95;;;;;;;;;;5007912;28;94081;-70
2022/05/15 03:06:58;;;;;;;22.13;5.78;;;;;;;;;;5007391;28;93819;-70
2022/05/15 03:09:24;;;;;;;19.85;5.50;;;;;;;;;;5018979;28;92967;-70
2022/05/15 03:11:50;;;;;;;22.92;5.60;;;;;;;;;;5009894;27;93570;-69
2022/05/15 03:14:16;;;;;;;16.77;6.22;;;;;;;;;;5008730;28;94393;-69
2022/05/15 03:16:43;;;;;;;17.50;5.32;;;;;;;;;;5007786;27;93809;-70
2022/05/15 03:19:09;;;;;;;20.88;5.40;;;;;;;;;;5006067;28;95817;-69
2022/05/15 03:21:35;;;;;;;11.88;5.13;;;;;;;;;;5007698;28;93410;-69
2022/05/15 03:24:04;;;;;;;18.80;5.28;;;;;;;;;;5016858;28;93109;-70
2022/05/15 03:26:31;;;;;;;18.10;5.63;;;;;;;;;;5015499;28;93709;-69
2022/05/15 03:28:58;;;;;;;15.05;5.43;;;;;;;;;;5013331;27;93803;-69
2022/05/15 03:31:24;;;;;;;23.95;5.43;;;;;;;;;;5008380;27;94017;-69
2022/05/15 03:33:51;;;;;;;21.65;5.95;;;;;;;;;;5008237;27;93522;-70
2022/05/15 03:36:17;;;;;;;18.38;6.20;;;;;;;;;;5009883;28;92952;-69
2022/05/15 03:38:44;;;;;;;18.48;5.75;;;;;;;;;;5009210;27;93482;-69
2022/05/15 03:41:11;;;;;;;17.67;5.28;;;;;;;;;;5008360;28;93930;-69
2022/05/15 03:43:37;;;;;;;22.30;5.13;;;;;;;;;;5011571;28;94932;-69
2022/05/15 03:46:04;;;;;;;13.80;5.53;;;;;;;;;;5015034;27;93216;-69
2022/05/15 03:48:31;;;;;;;14.60;5.38;;;;;;;;;;5011255;28;92558;-70
2022/05/15 03:50:57;;;;;;;15.68;5.03;;;;;;;;;;5011167;27;94338;-70
2022/05/15 03:53:24;;;;;;;15.13;4.95;;;;;;;;;;4997611;27;92865;-69
2022/05/15 03:55:51;;;;;;;15.27;4.63;;;;;;;;;;5012884;28;94208;-69
2022/05/15 03:58:17;;;;;;;28.73;5.32;;;;;;;;;;5010694;28;94507;-69
2022/05/15 04:00:44;;;;;;;14.43;4.88;;;;;;;;;;5008400;28;93261;-69
2022/05/15 04:03:10;;;;;;;24.23;5.70;;;;;;;;;;5006189;28;94310;-69
2022/05/15 04:05:36;;;;;;;25.13;5.55;;;;;;;;;;5005350;28;93410;-69
2022/05/15 04:08:03;;;;;;;19.98;5.15;;;;;;;;;;4997077;28;95436;-70
2022/05/15 04:10:30;;;;;;;17.80;5.53;;;;;;;;;;5013397;27;97306;-69
2022/05/15 04:12:56;;;;;;;17.75;4.82;;;;;;;;;;5014058;28;94186;-69
2022/05/15 04:15:22;;;;;;;16.15;4.60;;;;;;;;;;5013766;27;93163;-69
2022/05/15 04:17:49;;;;;;;9.27;4.50;;;;;;;;;;5012002;27;93808;-69
2022/05/15 04:20:17;;;;;;;18.88;4.95;;;;;;;;;;5010673;28;93977;-69
2022/05/15 04:22:44;;;;;;;19.92;4.50;;;;;;;;;;5011761;27;93527;-69
2022/05/15 04:25:11;;;;;;;17.42;5.07;;;;;;;;;;5015194;28;94243;-69
2022/05/15 04:27:38;;;;;;;26.52;5.45;;;;;;;;;;5009766;28;92781;-69
2022/05/15 04:30:06;;;;;;;18.85;5.00;;;;;;;;;;5010596;27;93168;-68
2022/05/15 04:32:32;;;;;;;20.80;5.80;;;;;;;;;;5006457;28;97765;-69
2022/05/15 04:34:58;;;;;;;15.35;5.28;;;;;;;;;;5012828;28;94238;-69
2022/05/15 04:37:25;;;;;;;19.70;5.05;;;;;;;;;;5009446;28;94150;-69
2022/05/15 04:39:51;;;;;;;19.92;4.68;;;;;;;;;;5009639;28;93133;-68
2022/05/15 04:42:17;;;;;;;22.30;5.40;;;;;;;;;;5011864;28;93780;-69
2022/05/15 04:44:45;;;;;;;19.67;4.93;;;;;;;;;;5009529;27;93479;-69
2022/05/15 04:47:12;;;;;;;23.02;5.45;;;;;;;;;;5010209;27;92753;-69
2022/05/15 04:49:38;;;;;;;19.08;5.22;;;;;;;;;;5010959;27;95596;-68
2022/05/15 04:52:05;;;;;;;20.58;5.57;;;;;;;;;;5008824;28;93468;-69
2022/05/15 04:54:31;;;;;;;19.88;6.30;;;;;;;;;;5008243;28;93771;-69
2022/05/15 04:56:57;;;;;;;16.08;5.75;;;;;;;;;;5015753;27;96357;-69
2022/05/15 04:59:23;;;;;;;22.83;5.90;;;;;;;;;;5009363;27;94333;-68
2022/05/15 05:01:50;;;;;;;26.63;6.30;;;;;;;;;;5011496;27;93306;-69
2022/05/15 05:04:16;;;;;;;21.25;6.50;;;;;;;;;;5008327;28;95285;-68
2022/05/15 05:06:42;;;;;;;19.65;5.43;;;;;;;;;;5011019;28;93038;-69
2022/05/15 05:09:09;;;;;;;17.48;5.75;;;;;;;;;;5008963;27;94326;-69
2022/05/15 05:11:35;;;;;;;15.45;5.40;;;;;;;;;;5008024;28;94069;-69
2022/05/15 05:14:01;;;;;;;23.20;6.20;;;;;;;;;;5015830;28;91823;-68
2022/05/15 05:16:27;;;;;;;24.02;5.47;;;;;;;;;;5020256;27;92439;-69
2022/05/15 05:18:54;;;;;;;20.92;6.22;;;;;;;;;;5019646;28;93274;-68
2022/05/15 05:21:20;;;;;;;22.25;7.05;;;;;;;;;;5014663;28;94900;-70
2022/05/15 05:23:46;;;;;;;20.83;6.40;;;;;;;;;;5019432;28;92449;-68
2022/05/15 05:26:13;;;;;;;25.88;7.00;;;;;;;;;;5022339;27;92581;-68
2022/05/15 05:28:39;;;;;;;24.25;6.47;;;;;;;;;;5017757;28;93250;-68
2022/05/15 05:31:06;;;;;;;30.40;8.05;;;;;;;;;;5025590;28;93773;-69
2022/05/15 05:33:32;;;;;;;30.00;7.20;;;;;;;;;;5021483;27;92470;-69
2022/05/15 05:35:58;;;;;;;31.20;7.95;;;;;;;;;;5022790;28;93717;-69
2022/05/15 05:38:30;;;;;;;30.05;7.30;;;;;;;;;;5028205;27;92763;-69
2022/05/15 05:40:57;;;;;;;34.75;7.25;;;;;;;;;;5015618;28;93890;-68
2022/05/15 05:43:23;;;;;;;26.90;6.80;;;;;;;;;;5025126;28;93442;-69
2022/05/15 05:45:49;;;;;;;26.35;6.75;;;;;;;;;;5023152;27;95039;-69
2022/05/15 05:48:16;;;;;;;32.90;8.38;;;;;;;;;;5036176;27;96583;-69
2022/05/15 05:50:42;;;;;;;34.03;8.13;;;;;;;;;;5027060;27;93858;-68
2022/05/15 05:53:09;;;;;;;32.53;7.60;;;;;;;;;;5018864;28;94111;-68
2022/05/15 05:55:36;;;;;;;32.75;7.88;;;;;;;;;;5022723;27;93341;-68
2022/05/15 05:58:02;;;;;;;31.83;8.75;;;;;;;;;;5034932;27;93469;-69
2022/05/15 06:00:33;;;;;;;35.92;8.00;;;;;;;;;;5039196;27;92410;-69
2022/05/15 06:05:46;;;;;;;37.03;7.88;;;;;;;;;;5016372;28;92453;-69
2022/05/15 06:08:13;;;;;;;34.40;7.70;;;;;;;;;;5023379;28;93438;-68
2022/05/15 06:10:40;;;;;;;30.65;7.75;;;;;;;;;;5014830;27;95963;-69
2022/05/15 06:13:07;;;;;;;44.25;8.95;;;;;;;;;;5014060;28;92556;-68
2022/05/15 06:15:33;;;;;;;33.17;8.40;;;;;;;;;;5023773;27;92770;-68
2022/05/15 06:18:00;;;;;;;34.63;7.20;;;;;;;;;;5031051;28;93247;-68
2022/05/15 06:20:27;;;;;;;42.55;7.18;;;;;;;;;;5022234;27;94176;-68
2022/05/15 06:22:53;;;;;;;40.00;6.53;;;;;;;;;;5019919;28;93231;-68
2022/05/15 06:25:19;;;;;;;29.60;7.70;;;;;;;;;;5025053;27;92439;-68
2022/05/15 06:27:46;;;;;;;35.72;7.10;;;;;;;;;;5022672;28;93167;-69
2022/05/15 06:30:12;;;;;;;27.00;6.80;;;;;;;;;;5014833;28;93426;-68
2022/05/15 06:32:39;;;;;;;28.67;7.80;;;;;;;;;;5024977;28;92570;-69
2022/05/15 06:35:06;;;;;;;32.15;7.07;;;;;;;;;;5015336;28;94855;-68
2022/05/15 06:37:33;;;;;;;40.33;7.32;;;;;;;;;;5014175;28;94124;-68
2022/05/15 06:39:59;;;;;;;38.97;8.43;;;;;;;;;;5021867;28;92899;-68
2022/05/15 06:42:28;;;;;;;35.92;7.72;;;;;;;;;;5018321;28;93260;-68
2022/05/15 06:44:55;;;;;;;37.22;7.38;;;;;;;;;;5021416;27;93422;-69
2022/05/15 06:47:23;;;;;;;40.60;7.30;;;;;;;;;;5026741;27;94136;-69
2022/05/15 06:49:49;;;;;;;34.50;8.23;;;;;;;;;;5015189;28;93694;-68
2022/05/15 06:52:16;;;;;;;35.83;7.60;;;;;;;;;;5015223;28;91797;-69
2022/05/15 06:54:42;;;;;;;35.38;7.20;;;;;;;;;;5032557;28;92921;-69
2022/05/15 06:59:54;;;;;;;27.05;6.75;;;;;;;;;;5013486;28;94920;-70
2022/05/15 07:02:20;;;;;;;25.38;6.70;;;;;;;;;;5013377;28;95255;-69
2022/05/15 07:04:46;;;;;;;29.90;7.15;;;;;;;;;;5020267;28;92541;-69
2022/05/15 07:07:12;;;;;;;30.83;8.13;;;;;;;;;;5030086;27;92801;-68
2022/05/15 07:09:39;;;;;;;37.67;7.90;;;;;;;;;;5015440;28;93725;-70
2022/05/15 07:12:06;;;;;;;25.38;6.88;;;;;;;;;;5013001;28;92487;-68
2022/05/15 07:14:34;;;;;;;34.40;7.60;;;;;;;;;;5013530;28;93961;-68
2022/05/15 07:17:00;;;;;;;35.55;7.93;;;;;;;;;;5031190;27;92932;-68
2022/05/15 07:19:26;;;;;;;39.35;7.85;;;;;;;;;;5014164;28;93702;-70
2022/05/15 07:21:53;;;;;;;28.50;7.15;;;;;;;;;;5015491;27;93529;-68
2022/05/15 07:24:20;;;;;;;31.88;7.45;;;;;;;;;;5013482;28;95868;-68
2022/05/15 07:26:47;;;;;;;33.40;7.32;;;;;;;;;;5014153;28;92470;-68
2022/05/15 07:29:13;;;;;;;33.53;7.90;;;;;;;;;;5017599;28;93154;-69
2022/05/15 07:31:40;;;;;;;29.88;7.03;;;;;;;;;;5014278;28;92535;-68
2022/05/15 07:34:07;;;;;;;29.67;7.05;;;;;;;;;;5015084;28;93188;-70
2022/05/15 07:36:33;;;;;;;26.17;6.57;;;;;;;;;;5014231;28;93539;-69
2022/05/15 07:39:00;;;;;;;32.60;7.75;;;;;;;;;;5015555;28;92487;-69
2022/05/15 07:41:26;;;;;;;29.25;7.25;;;;;;;;;;5014349;28;93250;-69
2022/05/15 07:43:52;;;;;;;31.83;7.53;;;;;;;;;;5018461;28;94624;-68
2022/05/15 07:46:18;;;;;;;30.25;7.28;;;;;;;;;;5028804;27;92452;-69
2022/05/15 07:48:46;;;;;;;32.10;7.07;;;;;;;;;;5031403;27;95711;-69
2022/05/15 07:51:12;;;;;;;24.40;6.85;;;;;;;;;;5036868;27;92436;-69
2022/05/15 07:53:39;;;;;;;30.90;6.45;;;;;;;;;;5022583;27;94019;-69
2022/05/15 07:56:09;;;;;;;27.63;6.88;;;;;;;;;;5023472;27;93548;-69
2022/05/15 07:58:36;;;;;;;36.07;8.20;;;;;;;;;;5027192;28;92377;-69
2022/05/15 08:01:05;;;;;;;31.90;7.45;;;;;;;;;;5038081;27;93084;-69
2022/05/15 08:03:33;;;;;;;25.38;7.13;;;;;;;;;;5030417;27;93844;-69
2022/05/15 08:08:45;;;;;;;25.70;6.82;;;;;;;;;;5015699;28;93161;-70
2022/05/15 08:11:11;;;;;;;34.90;6.57;;;;;;;;;;5031855;27;93446;-68
2022/05/15 08:13:38;;;;;;;23.20;6.45;;;;;;;;;;5019056;28;94757;-72
2022/05/15 08:16:04;;;;;;;27.40;6.47;;;;;;;;;;5018897;27;93625;-71
2022/05/15 08:24:00;;;;;;;30.17;7.28;;;;;;;;;;5017317;28;93519;-70
2022/05/15 08:26:27;;;;;;;30.48;7.22;;;;;;;;;;5017626;28;92461;-71
2022/05/15 08:28:54;;;;;;;27.05;7.10;;;;;;;;;;5017248;28;93567;-70
2022/05/15 08:31:22;;;;;;;22.60;6.88;;;;;;;;;;5023040;28;92182;-71
2022/05/15 08:33:49;;;;;;;17.02;5.70;;;;;;;;;;5037829;28;92439;-71
2022/05/15 08:36:16;;;;;;;35.55;7.78;;;;;;;;;;5036132;28;93480;-71
2022/05/15 08:38:44;;;;;;;27.95;8.35;;;;;;;;;;5017553;27;94864;-71
2022/05/15 08:41:25;;;;;;;22.33;6.82;;;;;;;;;;5030390;28;96917;-70
2022/05/15 08:43:55;;;;;;;23.70;7.00;;;;;;;;;;5029794;27;93611;-71
2022/05/15 08:46:45;;;;;;;27.13;7.15;;;;;;;;;;5029566;27;92445;-71
2022/05/15 08:49:19;;;;;;;29.38;7.25;;;;;;;;;;5030894;28;95323;-71
2022/05/15 08:51:52;;;;;;;26.10;6.45;;;;;;;;;;5016305;28;93251;-70
2022/05/15 08:54:19;;;;;;;27.75;6.60;;;;;;;;;;5015699;28;92583;-69
2022/05/15 08:56:46;;;;;;;26.73;6.63;;;;;;;;;;5021619;28;93632;-70
2022/05/15 08:59:20;;;;;;;16.60;5.78;;;;;;;;;;5017183;28;92429;-69
2022/05/15 09:01:49;;;;;;;20.70;6.05;;;;;;;;;;5020862;28;93230;-71
2022/05/15 09:04:16;;;;;;;22.63;6.55;;;;;;;;;;5014798;28;96073;-71
2022/05/15 09:06:50;;;;;;;18.25;5.38;;;;;;;;;;5016049;28;92576;-71
2022/05/15 09:09:43;;;;;;;25.63;6.68;;;;;;;;;;5023166;28;93359;-71
2022/05/15 09:12:14;;;;;;;20.58;6.38;;;;;;;;;;5013487;28;93319;-70
2022/05/15 09:14:47;;;;;;;21.15;6.05;;;;;;;;;;5017909;28;92478;-70
2022/05/15 09:17:27;;;;;;;18.52;5.32;;;;;;;;;;5033617;27;93476;-71
2022/05/15 09:19:58;;;;;;;24.33;5.68;;;;;;;;;;5015545;28;94129;-72
2022/05/15 09:22:27;;;;;;;21.00;5.88;;;;;;;;;;5026310;27;92351;-70
2022/05/15 09:24:54;;;;;;;16.13;4.83;;;;;;;;;;5017762;28;93325;-70
2022/05/15 09:27:24;;;;;;;18.42;5.07;;;;;;;;;;5033121;28;92421;-70
2022/05/15 09:29:50;;;;;;;;;;;;;;;;;;5028491;27;96315;-69
2022/05/15 09:32:38;;;;;;;12.48;4.75;;;;;;;;;;5037096;28;124099;-69
2022/05/15 09:35:06;;;;;;;25.95;5.85;;;;;;;;;;5034708;28;92460;-70
2022/05/15 09:40:36;;;;;;;14.93;4.32;;;;;;;;;;5026066;28;93397;-69
2022/05/15 09:45:56;;;;;;;17.63;4.57;;;;;;;;;;5035388;27;92975;-68
2022/05/15 09:48:24;;;;;;;18.77;5.60;;;;;;;;;;5037330;28;91785;-69
2022/05/15 09:50:51;;;;;;;20.52;5.10;;;;;;;;;;5030554;28;92419;-68
2022/05/15 09:53:21;;;;;;;16.80;4.95;;;;;;;;;;5031619;27;93511;-71
2022/05/15 09:55:47;;;;;;;;;;;;;;;;;;5015253;28;95441;-70
2022/05/15 09:58:18;;;;;;;17.15;4.38;;;;;;;;;;5029642;27;127585;-70
2022/05/15 10:00:45;;;;;;;28.60;4.97;;;;;;;;;;5027663;28;95703;-69
2022/05/15 10:03:20;;;;;;;21.30;5.07;;;;;;;;;;5024827;27;92567;-71
2022/05/15 10:05:55;;;;;;;16.35;4.25;;;;;;;;;;5022766;28;93543;-70
2022/05/15 10:08:23;;;;;;;25.00;5.43;;;;;;;;;;5014113;28;92483;-71
2022/05/15 10:10:52;;;;;;;15.77;4.18;;;;;;;;;;5015684;28;93047;-71
2022/05/15 10:13:18;;;;;;;16.27;3.95;;;;;;;;;;5015004;28;93905;-70
2022/05/15 10:15:47;;;;;;;22.70;4.53;;;;;;;;;;5025177;27;92886;-69
2022/05/15 10:18:15;;;;;;;13.38;3.85;;;;;;;;;;5020905;27;93257;-69
2022/05/15 10:20:43;;;;;;;16.20;4.60;;;;;;;;;;5013347;28;95946;-71
2022/05/15 10:23:14;;;;;;;17.52;4.57;;;;;;;;;;5017062;28;92551;-69
2022/05/15 10:25:43;;;;;;;16.58;3.67;;;;;;;;;;5028735;27;93246;-70
2022/05/15 10:28:19;;;;;;;18.27;4.03;;;;;;;;;;5035588;27;92363;-69
2022/05/15 10:30:50;;;;;;;14.70;3.45;;;;;;;;;;5035204;27;93235;-69
2022/05/15 10:33:18;;;;;;;14.50;3.50;;;;;;;;;;5025976;27;93144;-70
2022/05/15 10:35:55;;;;;;;12.23;3.05;;;;;;;;;;5020443;27;92436;-70
2022/05/15 10:38:36;;;;;;;15.50;2.90;;;;;;;;;;5022759;27;93336;-69
2022/05/15 10:41:15;;;;;;;13.00;2.72;;;;;;;;;;5013670;28;93432;-69
2022/05/15 10:43:45;;;;;;;15.48;2.97;;;;;;;;;;5013465;28;92546;-71
2022/05/15 10:46:11;;;;;;;;;;;;;;;;;;5018906;27;95314;-71
2022/05/15 10:48:57;;;;;;;13.02;3.50;;;;;;;;;;5019421;27;124724;-71
2022/05/15 10:51:26;;;;;;;13.38;2.83;;;;;;;;;;5014436;28;93822;-71
2022/05/15 10:59:53;;;;;;;19.10;3.67;;;;;;;;;;5022389;27;94175;-71
2022/05/15 11:02:33;;;;;;;12.85;3.17;;;;;;;;;;5014534;28;93047;-70
2022/05/15 11:05:01;;;;;;;16.27;3.58;;;;;;;;;;5025761;28;92422;-70
2022/05/15 11:07:46;;;;;;;20.33;3.45;;;;;;;;;;5028216;27;92494;-70
2022/05/15 11:10:20;;;;;;;14.48;3.75;;;;;;;;;;5014102;28;93554;-71
2022/05/15 11:12:58;;;;;;;13.73;3.30;;;;;;;;;;5016317;28;95336;-72
2022/05/15 11:15:36;;;;;;;15.48;3.42;;;;;;;;;;5020175;27;93856;-72
2022/05/15 11:18:11;;;;;;;15.50;2.55;;;;;;;;;;5020618;28;93632;-70
2022/05/15 11:20:50;;;;;;;15.10;3.58;;;;;;;;;;5027573;27;93021;-70
2022/05/15 11:23:28;;;;;;;15.38;2.88;;;;;;;;;;5020033;27;93501;-72
2022/05/15 11:25:57;;;;;;;11.07;3.00;;;;;;;;;;5008418;28;93678;-70
2022/05/15 11:28:27;;;;;;;13.48;2.72;;;;;;;;;;5014088;27;92609;-69
2022/05/15 11:31:02;;;;;;;16.40;3.33;;;;;;;;;;5022208;28;92718;-71
2022/05/15 11:33:51;;;;;;;16.13;2.90;;;;;;;;;;5029995;27;92540;-70
2022/05/15 11:36:23;;;;;;;17.50;2.58;;;;;;;;;;5016860;28;93315;-70
2022/05/15 11:39:05;;;;;;;11.93;3.63;;;;;;;;;;5033064;27;94971;-71
2022/05/15 11:42:10;;;;;;;14.52;2.53;;;;;;;;;;5018193;28;98682;-72
2022/05/15 11:44:40;;;;;;;15.45;2.63;;;;;;;;;;5021245;28;94831;-72
2022/05/15 11:47:15;;;;;;;14.60;2.97;;;;;;;;;;5017809;27;94301;-72
2022/05/15 11:49:57;;;;;;;23.50;3.70;;;;;;;;;;5030849;28;94391;-74
2022/05/15 11:52:37;;;;;;;14.68;3.25;;;;;;;;;;5026231;27;97020;-72
2022/05/15 11:55:27;;;;;;;11.50;2.38;;;;;;;;;;5031452;28;94281;-72
2022/05/15 11:58:07;;;;;;;13.37;2.10;;;;;;;;;;5017136;28;94481;-71
2022/05/15 12:00:33;;;;;;;14.93;3.35;;;;;;;;;;5031141;27;92504;-72
2022/05/15 12:03:00;;;;;;;9.45;2.67;;;;;;;;;;5013244;28;93140;-71
2022/05/15 12:05:35;;;;;;;11.93;2.67;;;;;;;;;;5040461;27;95861;-71
2022/05/15 12:08:07;;;;;;;11.98;2.15;;;;;;;;;;5028761;27;92551;-72
2022/05/15 12:10:33;;;;;;;15.60;3.20;;;;;;;;;;5014179;28;92859;-71
2022/05/15 12:13:01;;;;;;;14.75;2.55;;;;;;;;;;5012538;28;93630;-71
2022/05/15 12:15:46;;;;;;;15.50;3.33;;;;;;;;;;5014087;27;92484;-70
2022/05/15 12:18:22;;;;;;;11.80;3.25;;;;;;;;;;5013968;28;93163;-71
2022/05/15 12:20:50;;;;;;;16.10;3.53;;;;;;;;;;5016984;28;93488;-71
2022/05/15 12:24:27;;;;;;;14.02;3.25;;;;;;;;;;5014584;28;93060;-72
2022/05/15 12:26:45;;;;;;;10.40;2.70;;;;;;;;;;5008534;28;93600;-71
2022/05/15 12:29:25;;;;;;;18.95;4.05;;;;;;;;;;5012890;28;92442;-73
2022/05/15 12:31:53;;;;;;;14.40;2.83;;;;;;;;;;5014881;28;95187;-70
2022/05/15 12:34:28;;;;;;;16.10;2.88;;;;;;;;;;5017447;28;93331;-71
2022/05/15 12:36:57;;;;;;;14.05;2.65;;;;;;;;;;4999869;28;92510;-71
2022/05/15 12:39:26;;;;;;;11.77;3.30;;;;;;;;;;5017328;28;92935;-71
2022/05/15 12:41:53;;;;;;;17.70;3.58;;;;;;;;;;5017052;28;93817;-71
2022/05/15 12:44:32;;;;;;;16.02;3.08;;;;;;;;;;5018972;28;92536;-73
2022/05/15 12:47:00;;;;;;;11.77;2.90;;;;;;;;;;5034769;27;95727;-73
2022/05/15 12:49:28;;;;;;;10.35;3.00;;;;;;;;;;5037787;27;91696;-71
2022/05/15 12:52:07;;;;;;;10.93;2.60;;;;;;;;;;5036558;27;92423;-71
2022/05/15 12:54:34;;;;;;;15.80;2.60;;;;;;;;;;5037502;28;96723;-72
2022/05/15 12:57:01;;;;;;;11.35;2.65;;;;;;;;;;5034159;28;94770;-70
2022/05/15 12:59:28;;;;;;;7.72;2.15;;;;;;;;;;5035925;28;95570;-71
2022/05/15 13:01:55;;;;;;;17.20;2.65;;;;;;;;;;5036646;27;93294;-71
2022/05/15 13:04:23;;;;;;;10.48;2.60;;;;;;;;;;5036764;27;92473;-71
2022/05/15 13:06:57;;;;;;;16.50;2.63;;;;;;;;;;5039705;27;93478;-72
2022/05/15 13:09:28;;;;;;;7.55;2.40;;;;;;;;;;5036380;28;92533;-72
2022/05/15 13:11:56;;;;;;;18.75;2.97;;;;;;;;;;5036906;27;92934;-72
2022/05/15 13:14:28;;;;;;;13.40;3.20;;;;;;;;;;5037239;27;93148;-71
2022/05/15 13:16:55;;;;;;;15.05;3.25;;;;;;;;;;5033847;27;92496;-72
2022/05/15 13:19:26;;;;;;;12.40;3.08;;;;;;;;;;5036576;27;93141;-71
2022/05/15 13:21:53;;;;;;;11.23;3.15;;;;;;;;;;5034803;27;97128;-71
2022/05/15 13:24:20;;;;;;;9.65;2.72;;;;;;;;;;5036487;27;92541;-71
2022/05/15 13:26:47;;;;;;;15.02;3.17;;;;;;;;;;5036658;27;92903;-73
2022/05/15 13:29:18;;;;;;;10.75;2.83;;;;;;;;;;5039485;27;93751;-71
2022/05/15 13:31:46;;;;;;;10.30;2.55;;;;;;;;;;5036561;27;93387;-71
2022/05/15 13:34:14;;;;;;;12.00;2.63;;;;;;;;;;5035225;28;93304;-71
2022/05/15 13:36:52;;;;;;;18.42;3.42;;;;;;;;;;5036336;27;92553;-71
2022/05/15 13:44:50;;;;;;;13.10;2.95;;;;;;;;;;5036148;27;92384;-71
2022/05/15 13:47:17;;;;;;;14.30;2.78;;;;;;;;;;5035033;27;94766;-71
2022/05/15 13:49:46;;;;;;;11.30;2.70;;;;;;;;;;5035887;27;93496;-71
2022/05/15 13:52:25;;;;;;;13.27;3.08;;;;;;;;;;5038761;27;92489;-71
2022/05/15 13:54:51;;;;;;;6.55;2.22;;;;;;;;;;5036121;27;93536;-71
2022/05/15 13:57:17;;;;;;;28.33;2.88;;;;;;;;;;5035952;27;92435;-71
2022/05/15 13:59:58;;;;;;;15.43;2.58;;;;;;;;;;5036030;27;92997;-71
2022/05/15 14:02:28;;;;;;;15.05;3.00;;;;;;;;;;5036019;27;93560;-71
2022/05/15 14:04:57;;;;;;;26.45;2.88;;;;;;;;;;5036266;27;91754;-71
2022/05/15 14:07:25;;;;;;;13.68;3.15;;;;;;;;;;5035937;27;92407;-71
2022/05/15 14:09:53;;;;;;;11.20;2.80;;;;;;;;;;5035753;27;93467;-71
2022/05/15 14:12:37;;;;;;;13.57;2.97;;;;;;;;;;5037689;27;94774;-70
2022/05/15 14:15:07;;;;;;;10.52;2.35;;;;;;;;;;5033537;27;93115;-70
2022/05/15 14:17:47;;;;;;;6.50;2.85;;;;;;;;;;5018694;28;92904;-71
2022/05/15 14:20:13;;;;;;;;;;;;;;;;;;5036362;27;93208;-71
2022/05/15 14:22:40;;;;;;;7.72;2.15;;;;;;;;;;5036140;28;124000;-70
2022/05/15 14:25:08;;;;;;;12.15;2.88;;;;;;;;;;5036367;27;92397;-70
2022/05/15 14:27:35;;;;;;;15.45;2.85;;;;;;;;;;5036026;27;93993;-70
2022/05/15 14:30:03;;;;;;;12.57;2.90;;;;;;;;;;5034744;28;92841;-71
2022/05/15 14:32:31;;;;;;;14.05;5.07;;;;;;;;;;5034569;28;92436;-70
2022/05/15 14:34:58;;;;;;;12.13;2.67;;;;;;;;;;5037901;27;93206;-71
2022/05/15 14:37:26;;;;;;;10.05;3.10;;;;;;;;;;5033993;27;94804;-70
2022/05/15 14:39:52;;;;;;;11.38;3.30;;;;;;;;;;5035189;27;95527;-71
2022/05/15 14:42:18;;;;;;;12.93;3.33;;;;;;;;;;5034247;28;92430;-70
2022/05/15 14:44:45;;;;;;;10.55;2.72;;;;;;;;;;5035382;27;92598;-70
2022/05/15 14:47:14;;;;;;;11.52;3.65;;;;;;;;;;5034556;27;92932;-70
2022/05/15 14:49:41;;;;;;;8.65;2.60;;;;;;;;;;5034801;27;93534;-71
2022/05/15 14:52:07;;;;;;;13.48;3.03;;;;;;;;;;5034638;27;94228;-70
2022/05/15 14:54:35;;;;;;;12.93;3.28;;;;;;;;;;5034011;28;92811;-71
2022/05/15 14:57:03;;;;;;;15.35;3.30;;;;;;;;;;5038226;27;93700;-71
2022/05/15 14:59:32;;;;;;;15.32;2.47;;;;;;;;;;5035177;27;93250;-70
2022/05/15 15:01:58;;;;;;;12.82;2.90;;;;;;;;;;5032012;28;95867;-70
2022/05/15 15:04:31;;;;;;;11.98;2.95;;;;;;;;;;5035030;27;92388;-70
2022/05/15 15:06:58;;;;;;;13.98;2.60;;;;;;;;;;5035514;27;92324;-70
2022/05/15 15:09:25;;;;;;;10.07;2.95;;;;;;;;;;5033608;27;93633;-70
2022/05/15 15:11:53;;;;;;;7.18;2.40;;;;;;;;;;5035075;27;92445;-71
2022/05/15 15:14:20;;;;;;;15.75;2.60;;;;;;;;;;5033628;28;92973;-70
2022/05/15 15:16:47;;;;;;;20.38;3.05;;;;;;;;;;5047048;27;93355;-70